»·PEaware :: SWA281 KSNA-KLAS

SWA281 :: KSNA-KLAS

FLIGHT INFORMATION

Flight Status: Arrived
Operator:
Southwest Airlines
More flights by this operator :: More flights under this callsign
Pilot: Cody B. (17747)
Aircraft: BOEING 737-800
(B738)
More flights by this aircraft type
Origin: KSNA John Wayne-Orange Co
United States
Destination: KLAS McCarran Intl
United States
More flights between these airports :: More routes between these airports
Route: FINZZ2 MISEN KEPEC6
File this flight plan on PilotEdge
Remarks:
Altitude:
(Current/Filed)
29,000ft
Speed:
(Current/Filed)
441kts
Departed: 11-May-18 03:42 PM
Arrived: 11-May-18 04:37 PM
Distance/Time
Traveled:
197nm/0:55
Distance/Time
To Go:
Arrived

Flight Plot

Page will automatically refresh every two minutes.

Flight plan parsing failed; only flown route is shown


Map Options




Map Legend


Flown Route
Filed Route
Departure Airport
Arrival Airport
Navaid (VOR, NDB)
Fix

Horizontal Profiles

Position Reports

Time Latitude Longitude Heading Altitude Ground
Speed
11-May-18 15:08 33.676094 -117.864411 117 64ft 0kts
11-May-18 15:09 33.676094 -117.864411 117 64ft 0kts
11-May-18 15:10 33.676094 -117.864411 117 64ft 0kts
11-May-18 15:11 33.676094 -117.864411 117 64ft 0kts
11-May-18 15:12 33.676094 -117.864411 117 64ft 0kts
11-May-18 15:13 33.676094 -117.864411 117 64ft 0kts
11-May-18 15:14 33.676094 -117.864411 117 64ft 0kts
11-May-18 15:15 33.676094 -117.864411 117 64ft 0kts
11-May-18 15:16 33.676094 -117.864411 117 64ft 0kts
11-May-18 15:17 33.676094 -117.864411 117 64ft 0kts
11-May-18 15:18 33.676094 -117.864411 117 64ft 0kts
11-May-18 15:19 33.676094 -117.864411 117 64ft 0kts
11-May-18 15:20 33.676094 -117.864411 117 64ft 0kts
11-May-18 15:21 33.676094 -117.864411 117 64ft 0kts
11-May-18 15:22 33.676094 -117.864411 117 64ft 0kts
11-May-18 15:23 33.676094 -117.864411 117 64ft 0kts
11-May-18 15:24 33.676094 -117.864411 117 64ft 0kts
11-May-18 15:25 33.676094 -117.864411 117 64ft 0kts
11-May-18 15:26 33.676094 -117.864411 117 64ft 0kts
11-May-18 15:27 33.676094 -117.864411 117 64ft 0kts
11-May-18 15:28 33.676094 -117.864411 117 64ft 0kts
11-May-18 15:29 33.676094 -117.864411 117 64ft 0kts
11-May-18 15:30 33.676094 -117.864411 117 64ft 0kts
11-May-18 15:31 33.676094 -117.864411 117 64ft 0kts
11-May-18 15:32 33.676094 -117.864411 117 64ft 0kts
11-May-18 15:33 33.676176 -117.864606 116 64ft 2kts
11-May-18 15:34 33.676157 -117.865185 34 64ft 1kts
11-May-18 15:35 33.676079 -117.865236 27 64ft 0kts
11-May-18 15:36 33.676079 -117.865236 27 64ft 0kts
11-May-18 15:37 33.676108 -117.865218 27 64ft 1kts
11-May-18 15:38 33.677890 -117.864085 27 64ft 11kts
11-May-18 15:39 33.680429 -117.862803 330 64ft 7kts
11-May-18 15:40 33.681166 -117.864276 297 64ft 0kts
11-May-18 15:41 33.681427 -117.864842 299 64ft 5kts
11-May-18 15:42 33.676928 -117.868061 206 64ft 111kts
11-May-18 15:43 33.636877 -117.894624 201 3479ft 204kts
11-May-18 15:44 33.571387 -117.904128 207 7512ft 259kts
11-May-18 15:45 33.511356 -117.964174 226 8004ft 273kts
11-May-18 15:46 33.511811 -118.039637 306 10211ft 275kts
11-May-18 15:47 33.569736 -118.110741 326 13354ft 323kts
11-May-18 15:48 33.659489 -118.092689 22 16937ft 367kts
11-May-18 15:49 33.751167 -118.037603 22 17541ft 375kts
11-May-18 15:50 33.844452 -117.982459 21 20893ft 384kts
11-May-18 15:51 33.939729 -117.920138 34 22932ft 410kts
11-May-18 15:52 34.027301 -117.836911 33 22943ft 402kts
11-May-18 15:53 34.113408 -117.752091 47 25095ft 419kts
11-May-18 15:54 34.185499 -117.638913 47 27403ft 432kts
11-May-18 15:55 34.261400 -117.524427 47 28914ft 448kts
11-May-18 15:56 34.342110 -117.403348 47 28911ft 480kts
11-May-18 15:57 34.426159 -117.277028 47 28787ft 488kts
11-May-18 15:58 34.511078 -117.149115 47 28788ft 489kts
11-May-18 15:59 34.597012 -117.021872 46 28765ft 489kts
11-May-18 16:00 34.684103 -116.894781 46 28680ft 489kts
11-May-18 16:01 34.770910 -116.767574 46 28680ft 491kts
11-May-18 16:02 34.858420 -116.639837 41 28672ft 492kts
11-May-18 16:03 34.961885 -116.537792 33 27936ft 462kts
11-May-18 16:04 35.060406 -116.442747 33 24978ft 448kts
11-May-18 16:05 35.149923 -116.344011 41 22762ft 424kts
11-May-18 16:06 35.230938 -116.242434 41 21207ft 417kts
11-May-18 16:07 35.311222 -116.141487 41 19670ft 411kts
11-May-18 16:08 35.389768 -116.042416 41 18165ft 401kts
11-May-18 16:09 35.466051 -115.945660 42 17111ft 385kts
11-May-18 16:10 35.541659 -115.850061 42 15618ft 388kts
11-May-18 16:11 35.615650 -115.755930 43 14174ft 375kts
11-May-18 16:12 35.682510 -115.670532 43 13042ft 335kts
11-May-18 16:13 35.749084 -115.588571 29 13039ft 336kts
11-May-18 16:14 35.837041 -115.569771 357 13049ft 323kts
11-May-18 16:15 35.926478 -115.564799 0 13047ft 324kts
11-May-18 16:16 35.994101 -115.494104 67 12247ft 339kts
11-May-18 16:17 36.027424 -115.389525 70 11137ft 318kts
11-May-18 16:18 36.027121 -115.286295 100 9956ft 300kts
11-May-18 16:19 36.018878 -115.185058 100 8924ft 300kts
11-May-18 16:20 36.011500 -115.082630 99 8068ft 295kts
11-May-18 16:21 36.005753 -114.988844 99 8046ft 265kts
11-May-18 16:22 36.000164 -114.898391 99 8014ft 264kts
11-May-18 16:23 35.994444 -114.807872 99 8012ft 264kts
11-May-18 16:24 35.989435 -114.732627 99 8014ft 263kts
11-May-18 16:25 35.984015 -114.649498 99 7997ft 221kts
11-May-18 16:26 36.023572 -114.601510 0 8023ft 219kts
11-May-18 16:27 36.062041 -114.636120 274 8017ft 175kts
11-May-18 16:28 36.068636 -114.694918 269 8017ft 171kts
11-May-18 16:29 36.072130 -114.753982 264 8013ft 171kts
11-May-18 16:30 36.072623 -114.812240 265 7848ft 173kts
11-May-18 16:31 36.074946 -114.869425 265 6913ft 164kts
11-May-18 16:32 36.076763 -114.922754 262 5683ft 140kts
11-May-18 16:33 36.074412 -114.969574 260 4006ft 138kts
11-May-18 16:34 36.075758 -115.015545 258 3417ft 132kts
11-May-18 16:35 36.074587 -115.062370 259 3231ft 139kts
11-May-18 16:36 36.073960 -115.108056 257 2344ft 130kts
11-May-18 16:37 36.073878 -115.143878 291 2096ft 34kts
11-May-18 16:38 36.074567 -115.145727 295 2102ft 0kts

Navigation Log

Ident Type
Flight plan parsing failed, navigation log unavailable